createdAt,value
2017-06-24T00:02:19.720Z,19.70
2017-06-24T00:04:48.631Z,19.60
2017-06-24T00:07:17.412Z,19.50
2017-06-24T00:09:49.295Z,19.50
2017-06-24T00:12:17.312Z,19.50
2017-06-24T00:14:46.228Z,19.50
2017-06-24T00:17:14.252Z,19.40
2017-06-24T00:19:42.279Z,19.40
2017-06-24T00:22:11.051Z,19.40
2017-06-24T00:24:39.112Z,19.30
2017-06-24T00:27:08.039Z,19.30
2017-06-24T00:29:36.052Z,19.30
2017-06-24T00:32:05.995Z,19.30
2017-06-24T00:34:41.759Z,19.30
2017-06-24T00:37:12.470Z,19.20
2017-06-24T00:39:57.123Z,19.20
2017-06-24T00:42:25.157Z,19.20
2017-06-24T00:44:56.139Z,19.20
2017-06-24T00:47:39.299Z,19.20
2017-06-24T00:50:08.080Z,19.20
2017-06-24T00:52:36.859Z,19.30
2017-06-24T00:55:16.771Z,19.20
2017-06-24T00:57:48.643Z,19.20
2017-06-24T01:00:20.431Z,19.10
2017-06-24T01:03:07.423Z,19.00
2017-06-24T01:05:35.455Z,18.90
2017-06-24T01:08:03.482Z,18.80
2017-06-24T01:10:35.184Z,18.60
2017-06-24T01:13:03.199Z,18.50
2017-06-24T01:15:31.219Z,18.30
2017-06-24T01:17:59.251Z,18.20
2017-06-24T01:20:40.723Z,18.00
2017-06-24T01:23:08.771Z,18.00
2017-06-24T01:25:36.791Z,18.00
2017-06-24T01:28:04.806Z,18.10
2017-06-24T01:30:35.858Z,18.10
2017-06-24T01:33:04.766Z,18.10
2017-06-24T01:35:32.774Z,18.10
2017-06-24T01:38:15.443Z,18.10
2017-06-24T01:40:43.450Z,18.10
2017-06-24T01:43:11.464Z,18.00
2017-06-24T01:48:38.030Z,18.10
2017-06-24T01:51:07.963Z,18.10
2017-06-24T01:53:42.126Z,18.10
2017-06-24T01:56:13.498Z,18.10
2017-06-24T01:58:53.034Z,18.10
2017-06-24T02:01:21.054Z,18.00
2017-06-24T02:03:49.994Z,17.90
2017-06-24T02:06:18.118Z,17.90
2017-06-24T02:09:03.699Z,18.00
2017-06-24T02:11:50.402Z,18.00
2017-06-24T02:14:39.782Z,18.00
2017-06-24T02:17:08.694Z,18.10
2017-06-24T02:22:33.766Z,18.20
2017-06-24T02:25:02.570Z,18.00
2017-06-24T02:27:49.742Z,18.00
2017-06-24T02:30:17.794Z,17.90
2017-06-24T02:32:55.691Z,17.80
2017-06-24T02:38:16.886Z,17.80
2017-06-24T02:40:44.930Z,17.70
2017-06-24T02:43:13.902Z,17.70
2017-06-24T02:45:41.918Z,17.60
2017-06-24T02:48:10.713Z,17.60
2017-06-24T02:50:42.878Z,17.60
2017-06-24T02:53:16.510Z,17.60
2017-06-24T02:55:50.106Z,17.60
2017-06-24T02:58:18.130Z,17.50
2017-06-24T03:00:46.153Z,17.10
2017-06-24T03:03:14.161Z,17.20
2017-06-24T03:05:42.978Z,17.30
2017-06-24T03:08:11.061Z,17.20
2017-06-24T03:10:39.122Z,17.20
2017-06-24T03:13:07.197Z,17.10
2017-06-24T03:15:35.267Z,17.10
2017-06-24T03:18:03.341Z,17.00
2017-06-24T03:20:31.434Z,17.00
2017-06-24T03:22:59.421Z,17.00
2017-06-24T03:25:27.654Z,16.80
2017-06-24T03:27:55.725Z,16.70
2017-06-24T03:30:23.793Z,16.60
2017-06-24T03:32:51.861Z,16.60
2017-06-24T03:35:19.938Z,16.60
2017-06-24T03:37:47.949Z,16.60
2017-06-24T03:40:15.965Z,16.70
2017-06-24T03:42:44.041Z,16.60
2017-06-24T03:45:12.113Z,16.60
2017-06-24T03:47:40.185Z,16.50
2017-06-24T03:50:08.209Z,16.30
2017-06-24T03:52:36.231Z,16.10
2017-06-24T03:55:04.293Z,16.10
2017-06-24T03:57:32.365Z,16.30
2017-06-24T04:00:00.372Z,16.40
2017-06-24T04:02:28.433Z,16.40
2017-06-24T04:04:56.477Z,16.40
2017-06-24T04:07:25.385Z,16.40
2017-06-24T04:09:54.207Z,16.40
2017-06-24T04:12:22.221Z,16.60
2017-06-24T04:14:50.293Z,16.70
2017-06-24T04:17:18.305Z,16.80
2017-06-24T04:19:46.432Z,16.90
2017-06-24T04:22:14.449Z,17.00
2017-06-24T04:24:42.472Z,17.00
2017-06-24T04:27:10.542Z,16.90
2017-06-24T04:29:38.612Z,16.90
2017-06-24T04:32:06.688Z,16.90
2017-06-24T04:34:34.710Z,16.90
2017-06-24T04:37:02.868Z,16.90
2017-06-24T04:39:30.896Z,16.90
2017-06-24T04:41:58.913Z,16.90
2017-06-24T04:44:26.936Z,17.00
2017-06-24T04:46:55.021Z,17.00
2017-06-24T04:49:23.080Z,17.20
2017-06-24T04:51:51.149Z,17.30
2017-06-24T04:54:19.220Z,17.40
2017-06-24T04:56:47.692Z,17.60
2017-06-24T04:59:15.772Z,17.60
2017-06-24T05:01:43.840Z,17.70
2017-06-24T05:04:11.914Z,17.90
2017-06-24T05:06:39.989Z,18.00
2017-06-24T05:09:08.000Z,18.00
2017-06-24T05:11:36.124Z,18.10
2017-06-24T05:14:04.964Z,18.20
2017-06-24T05:16:33.112Z,18.20
2017-06-24T05:19:01.160Z,18.30
2017-06-24T05:21:29.228Z,18.40
2017-06-24T05:23:57.244Z,18.50
2017-06-24T05:26:25.372Z,18.80
2017-06-24T05:28:53.440Z,19.00
2017-06-24T05:31:22.331Z,19.20
2017-06-24T05:33:50.368Z,19.50
2017-06-24T05:36:19.200Z,19.90
2017-06-24T05:38:47.260Z,19.80
2017-06-24T05:41:15.291Z,20.00
2017-06-24T05:43:44.119Z,20.20
2017-06-24T05:46:12.192Z,20.20
2017-06-24T05:48:40.260Z,20.30
2017-06-24T05:51:08.328Z,20.30
2017-06-24T05:53:36.400Z,20.40
2017-06-24T05:56:04.475Z,20.50
2017-06-24T05:58:32.487Z,20.70
2017-06-24T06:01:00.511Z,20.80
2017-06-24T06:03:28.527Z,20.90
2017-06-24T06:05:56.540Z,20.90
2017-06-24T06:08:24.607Z,21.00
2017-06-24T06:10:52.579Z,21.10
2017-06-24T06:13:20.595Z,21.20
2017-06-24T06:15:48.616Z,21.20
2017-06-24T06:18:16.639Z,21.30
2017-06-24T06:20:44.655Z,21.30
2017-06-24T06:23:12.664Z,21.30
2017-06-24T06:25:40.695Z,21.40
2017-06-24T06:28:08.703Z,21.60
2017-06-24T06:30:36.715Z,21.70
2017-06-24T06:33:05.507Z,21.80
2017-06-24T06:35:34.284Z,21.90
2017-06-24T06:38:03.062Z,21.90
2017-06-24T06:40:31.095Z,21.90
2017-06-24T06:42:59.107Z,21.90
2017-06-24T06:45:27.119Z,22.00
2017-06-24T06:47:55.247Z,22.00
2017-06-24T06:50:23.255Z,22.10
2017-06-24T06:52:51.271Z,22.10
2017-06-24T06:55:19.291Z,22.00
2017-06-24T06:57:47.303Z,22.00
2017-06-24T07:00:15.323Z,22.10
2017-06-24T07:02:43.395Z,22.10
2017-06-24T07:05:11.371Z,22.20
2017-06-24T07:07:39.379Z,22.40
2017-06-24T07:10:07.395Z,22.40
2017-06-24T07:12:35.419Z,22.40
2017-06-24T07:15:03.422Z,22.40
2017-06-24T07:17:32.210Z,22.50
2017-06-24T07:20:00.987Z,22.70
2017-06-24T07:22:28.990Z,22.60
2017-06-24T07:24:57.010Z,22.80
2017-06-24T07:27:25.018Z,22.80
2017-06-24T07:29:53.034Z,23.00
2017-06-24T07:32:21.055Z,23.10
2017-06-24T07:34:49.074Z,23.20
2017-06-24T07:37:17.083Z,23.20
2017-06-24T07:39:45.891Z,23.60
2017-06-24T07:42:13.903Z,23.60
2017-06-24T07:44:41.910Z,23.70
2017-06-24T07:47:10.710Z,23.80
2017-06-24T07:49:38.722Z,23.80
2017-06-24T07:52:06.734Z,23.90
2017-06-24T07:54:35.522Z,24.00
2017-06-24T07:57:04.302Z,24.00
2017-06-24T07:59:32.302Z,24.00
2017-06-24T08:02:00.318Z,24.20
2017-06-24T08:04:28.334Z,24.10
2017-06-24T08:06:56.374Z,23.90
2017-06-24T08:09:24.406Z,23.80
2017-06-24T08:11:52.414Z,23.90
2017-06-24T08:14:20.426Z,23.70
2017-06-24T08:16:48.442Z,23.80
2017-06-24T08:19:16.557Z,23.90
2017-06-24T08:21:44.522Z,23.80
2017-06-24T08:24:12.546Z,23.90
2017-06-24T08:26:40.550Z,24.00
2017-06-24T08:29:09.326Z,24.30
2017-06-24T08:31:38.114Z,24.40
2017-06-24T08:34:06.126Z,24.40
2017-06-24T08:36:34.138Z,24.40
2017-06-24T08:39:02.154Z,24.50
2017-06-24T08:41:30.222Z,24.60
2017-06-24T08:43:58.202Z,24.70
2017-06-24T08:46:26.250Z,24.70
2017-06-24T08:48:54.242Z,24.70
2017-06-24T08:51:22.249Z,24.80
2017-06-24T08:53:50.265Z,24.90
2017-06-24T08:56:18.273Z,25.00
2017-06-24T08:58:46.345Z,25.20
2017-06-24T09:01:14.385Z,25.20
2017-06-24T09:03:42.389Z,25.20
2017-06-24T09:06:10.402Z,25.20
2017-06-24T09:08:39.181Z,25.30
2017-06-24T09:11:07.970Z,25.30
2017-06-24T09:13:36.741Z,25.20
2017-06-24T09:16:04.773Z,25.20
2017-06-24T09:18:32.781Z,25.30
2017-06-24T09:21:00.789Z,25.30
2017-06-24T09:23:28.825Z,25.40
2017-06-24T09:25:56.833Z,25.40
2017-06-24T09:28:24.845Z,25.30
2017-06-24T09:30:52.871Z,25.00
2017-06-24T09:33:20.869Z,25.10
2017-06-24T09:35:48.881Z,25.40
2017-06-24T09:38:17.669Z,25.60
2017-06-24T09:40:46.441Z,25.60
2017-06-24T09:43:14.453Z,25.60
2017-06-24T09:45:42.469Z,25.70
2017-06-24T09:48:10.489Z,25.70
2017-06-24T09:50:38.493Z,25.80
2017-06-24T09:53:06.518Z,25.80
2017-06-24T09:55:34.541Z,26.00
2017-06-24T09:58:02.548Z,26.10
2017-06-24T10:00:31.361Z,26.10
2017-06-24T10:02:59.373Z,26.10
2017-06-24T10:05:27.376Z,26.20
2017-06-24T10:07:56.160Z,26.20
2017-06-24T10:10:24.937Z,26.20
2017-06-24T10:12:53.712Z,26.30
2017-06-24T10:15:21.728Z,26.30
2017-06-24T10:17:49.736Z,26.30
2017-06-24T10:20:17.744Z,26.20
2017-06-24T10:22:46.532Z,26.60
2017-06-24T10:25:14.640Z,26.60
2017-06-24T10:27:42.649Z,26.80
2017-06-24T10:30:10.668Z,26.80
2017-06-24T10:32:38.676Z,26.70
2017-06-24T10:35:06.680Z,26.70
2017-06-24T10:37:35.480Z,26.80
2017-06-24T10:40:03.501Z,26.80
2017-06-24T10:42:31.508Z,26.90
2017-06-24T10:45:00.320Z,27.10
2017-06-24T10:47:28.330Z,27.10
2017-06-24T10:49:56.340Z,27.20
2017-06-24T10:52:25.125Z,27.30
2017-06-24T10:54:53.136Z,27.30
2017-06-24T10:57:21.153Z,27.50
2017-06-24T10:59:49.190Z,27.60
2017-06-24T11:02:17.200Z,27.40
2017-06-24T11:04:45.212Z,27.20
2017-06-24T11:07:13.256Z,26.80
2017-06-24T11:09:41.268Z,27.00
2017-06-24T11:12:09.284Z,27.10
2017-06-24T11:14:38.092Z,26.90
2017-06-24T11:17:06.104Z,26.90
2017-06-24T11:19:34.112Z,27.10
2017-06-24T11:22:02.928Z,27.50
2017-06-24T11:24:30.944Z,27.50
2017-06-24T11:26:58.960Z,27.60
2017-06-24T11:29:26.975Z,27.50
2017-06-24T11:31:54.995Z,27.50
2017-06-24T11:34:23.028Z,27.40
2017-06-24T11:36:51.075Z,27.10
2017-06-24T11:39:19.087Z,27.40
2017-06-24T11:41:47.872Z,27.80
2017-06-24T11:44:15.891Z,27.70
2017-06-24T11:46:43.908Z,27.60
2017-06-24T11:49:12.691Z,27.80
2017-06-24T11:51:41.479Z,27.70
2017-06-24T11:54:10.251Z,27.80
2017-06-24T11:56:38.267Z,27.80
2017-06-24T11:59:06.303Z,28.00
2017-06-24T12:01:35.087Z,28.30
2017-06-24T12:04:03.099Z,28.30
2017-06-24T12:06:31.123Z,28.40
2017-06-24T12:08:59.135Z,28.30
2017-06-24T12:11:27.149Z,28.30
2017-06-24T12:13:55.201Z,28.30
2017-06-24T12:16:23.203Z,28.40
2017-06-24T12:18:51.211Z,27.90
2017-06-24T12:21:19.235Z,27.80
2017-06-24T12:23:47.275Z,28.10
2017-06-24T12:26:15.287Z,28.30
2017-06-24T12:28:44.075Z,28.30
2017-06-24T12:31:12.855Z,28.40
2017-06-24T12:33:40.867Z,28.40
2017-06-24T12:36:08.907Z,28.30
2017-06-24T12:38:36.915Z,28.10
2017-06-24T12:41:04.923Z,28.10
2017-06-24T12:43:32.963Z,28.00
2017-06-24T12:46:00.975Z,27.90
2017-06-24T12:48:28.991Z,28.20
2017-06-24T12:50:57.014Z,28.40
2017-06-24T12:53:25.022Z,28.20
2017-06-24T12:55:53.035Z,28.00
2017-06-24T12:58:21.050Z,28.20
2017-06-24T13:00:49.071Z,28.30
2017-06-24T13:03:17.075Z,28.20
2017-06-24T13:05:45.883Z,28.60
2017-06-24T13:08:13.901Z,28.60
2017-06-24T13:10:41.911Z,28.80
2017-06-24T13:13:09.947Z,29.00
2017-06-24T13:15:37.951Z,29.10
2017-06-24T13:18:05.971Z,29.20
2017-06-24T13:20:33.990Z,29.20
2017-06-24T13:23:01.999Z,29.30
2017-06-24T13:25:30.010Z,29.40
2017-06-24T13:27:58.106Z,29.50
2017-06-24T13:30:26.075Z,29.60
2017-06-24T13:32:54.078Z,29.60
2017-06-24T13:35:22.119Z,29.60
2017-06-24T13:37:50.187Z,29.70
2017-06-24T13:40:18.150Z,29.80
2017-06-24T13:42:46.174Z,29.90
2017-06-24T13:45:14.196Z,29.90
2017-06-24T13:47:42.951Z,29.80
2017-06-24T13:50:10.983Z,29.80
2017-06-24T13:52:38.990Z,29.90
2017-06-24T13:55:07.002Z,29.90
2017-06-24T13:57:35.027Z,29.80
2017-06-24T14:00:03.034Z,29.80
2017-06-24T14:02:31.038Z,29.90
2017-06-24T14:04:59.062Z,30.00
2017-06-24T14:07:27.078Z,30.10
2017-06-24T14:09:55.086Z,30.10
2017-06-24T14:12:23.866Z,30.20
2017-06-24T14:14:51.878Z,30.20
2017-06-24T14:17:19.886Z,30.30
2017-06-24T14:19:47.922Z,30.30
2017-06-24T14:22:15.930Z,30.40
2017-06-24T14:24:43.934Z,30.30
2017-06-24T14:27:11.962Z,30.30
2017-06-24T14:29:39.970Z,30.30
2017-06-24T14:32:08.022Z,30.40
2017-06-24T14:34:36.059Z,30.20
2017-06-24T14:37:04.070Z,30.20
2017-06-24T14:39:32.078Z,30.10
2017-06-24T14:42:00.114Z,29.90
2017-06-24T14:44:28.896Z,29.80
2017-06-24T14:46:57.666Z,29.90
2017-06-24T14:49:26.722Z,29.90
2017-06-24T14:51:54.734Z,30.00
2017-06-24T14:54:22.745Z,30.10
2017-06-24T14:56:50.762Z,30.10
2017-06-24T14:59:18.766Z,29.90
2017-06-24T15:01:46.769Z,29.80
2017-06-24T15:04:14.813Z,29.80
2017-06-24T15:06:42.830Z,29.80
2017-06-24T15:09:10.841Z,29.60
2017-06-24T15:11:38.857Z,29.60
2017-06-24T15:14:06.861Z,29.50
2017-06-24T15:16:34.866Z,29.40
2017-06-24T15:19:02.897Z,29.40
2017-06-24T15:21:30.905Z,29.40
2017-06-24T15:23:58.924Z,29.40
2017-06-24T15:26:26.941Z,29.40
2017-06-24T15:28:54.949Z,29.30
2017-06-24T15:31:22.961Z,29.30
2017-06-24T15:33:51.025Z,29.40
2017-06-24T15:36:19.075Z,29.40
2017-06-24T15:38:47.057Z,29.40
2017-06-24T15:41:15.090Z,29.40
2017-06-24T15:43:43.097Z,29.30
2017-06-24T15:46:11.117Z,29.30
2017-06-24T15:48:39.257Z,29.20
2017-06-24T15:51:08.114Z,29.20
2017-06-24T15:53:36.120Z,29.20
2017-06-24T15:56:04.245Z,29.30
2017-06-24T15:58:32.265Z,29.40
2017-06-24T16:01:00.281Z,29.40
2017-06-24T16:03:28.317Z,29.40
2017-06-24T16:05:56.353Z,29.30
2017-06-24T16:08:24.453Z,29.30
2017-06-24T16:10:52.552Z,29.20
2017-06-24T16:13:21.309Z,29.20
2017-06-24T16:15:49.321Z,29.20
2017-06-24T16:18:17.369Z,29.30
2017-06-24T16:20:45.389Z,29.20
2017-06-24T16:23:13.429Z,29.20
2017-06-24T16:25:41.448Z,29.30
2017-06-24T16:28:10.225Z,29.20
2017-06-24T16:30:39.013Z,29.10
2017-06-24T16:33:07.037Z,29.10
2017-06-24T16:35:35.077Z,28.90
2017-06-24T16:38:03.104Z,28.90
2017-06-24T16:40:31.220Z,28.90
2017-06-24T16:42:59.264Z,29.00
2017-06-24T16:45:28.045Z,29.10
2017-06-24T16:47:56.108Z,29.10
2017-06-24T16:50:24.232Z,29.10
2017-06-24T16:52:52.992Z,29.10
2017-06-24T16:55:21.084Z,29.00
2017-06-24T16:57:49.169Z,29.00
2017-06-24T17:00:17.161Z,29.00
2017-06-24T17:02:45.288Z,29.00
2017-06-24T17:05:13.316Z,29.00
2017-06-24T17:07:41.312Z,29.00
2017-06-24T17:10:10.197Z,28.90
2017-06-24T17:12:38.172Z,28.80
2017-06-24T17:15:07.021Z,28.70
2017-06-24T17:17:35.072Z,28.60
2017-06-24T17:20:03.112Z,28.60
2017-06-24T17:22:31.135Z,28.50
2017-06-24T17:24:59.188Z,28.50
2017-06-24T17:27:27.208Z,28.50
2017-06-24T17:29:55.256Z,28.50
2017-06-24T17:32:23.419Z,28.50
2017-06-24T17:34:51.459Z,28.50
2017-06-24T17:37:19.668Z,28.40
2017-06-24T17:39:47.772Z,28.30
2017-06-24T17:42:15.752Z,28.30
2017-06-24T17:44:43.800Z,28.20
2017-06-24T17:47:11.819Z,28.10
2017-06-24T17:49:39.828Z,28.00
2017-06-24T17:52:07.904Z,28.00
2017-06-24T17:54:36.744Z,28.00
2017-06-24T17:57:04.789Z,28.00
2017-06-24T17:59:32.868Z,28.00
2017-06-24T18:02:00.900Z,27.80
2017-06-24T18:04:28.964Z,27.80
2017-06-24T18:06:57.015Z,27.70
2017-06-24T18:09:25.027Z,27.70
2017-06-24T18:11:54.003Z,27.60
2017-06-24T18:14:22.807Z,27.40
2017-06-24T18:16:51.663Z,27.40
2017-06-24T18:19:19.731Z,27.30
2017-06-24T18:21:47.863Z,27.20
2017-06-24T18:24:15.904Z,27.20
2017-06-24T18:26:44.715Z,27.10
2017-06-24T18:29:12.735Z,27.00
2017-06-24T18:31:40.864Z,27.00
2017-06-24T18:34:08.943Z,27.00
2017-06-24T18:36:37.783Z,26.90
2017-06-24T18:39:05.835Z,26.90
2017-06-24T18:41:33.907Z,26.80
2017-06-24T18:44:02.023Z,26.60
2017-06-24T18:46:30.063Z,26.50
2017-06-24T18:48:58.107Z,26.40
2017-06-24T18:51:26.152Z,26.40
2017-06-24T18:53:54.199Z,26.30
2017-06-24T18:56:22.327Z,26.20
2017-06-24T18:58:50.380Z,26.00
2017-06-24T19:01:18.523Z,25.80
2017-06-24T19:03:46.646Z,25.80
2017-06-24T19:06:14.667Z,25.70
2017-06-24T19:08:42.746Z,25.70
2017-06-24T19:11:10.819Z,25.70
2017-06-24T19:13:38.862Z,25.70
2017-06-24T19:16:07.662Z,25.60
2017-06-24T19:18:36.478Z,25.50
2017-06-24T19:21:04.483Z,25.50
2017-06-24T19:23:32.615Z,25.50
2017-06-24T19:26:00.679Z,25.30
2017-06-24T19:28:28.734Z,25.30
2017-06-24T19:30:56.711Z,25.30
2017-06-24T19:33:24.807Z,25.20
2017-06-24T19:35:52.814Z,25.10
2017-06-24T19:38:20.846Z,25.10
2017-06-24T19:40:48.938Z,25.10
2017-06-24T19:43:16.966Z,25.00
2017-06-24T19:45:45.147Z,25.00
2017-06-24T19:48:13.258Z,24.80
2017-06-24T19:50:41.319Z,24.80
2017-06-24T19:53:10.350Z,24.70
2017-06-24T19:55:40.430Z,24.60
2017-06-24T19:58:11.970Z,24.60
2017-06-24T20:00:45.603Z,24.60
2017-06-24T20:03:13.755Z,24.50
2017-06-24T20:05:54.718Z,24.40
2017-06-24T20:08:22.854Z,24.40
2017-06-24T20:10:54.366Z,24.30
2017-06-24T20:13:22.382Z,24.30
2017-06-24T20:15:53.834Z,24.20
2017-06-24T20:18:23.778Z,24.10
2017-06-24T20:20:59.062Z,24.00
2017-06-24T20:23:42.343Z,23.90
2017-06-24T20:26:10.386Z,23.90
2017-06-24T20:28:40.346Z,23.90
2017-06-24T20:31:12.130Z,23.80
2017-06-24T20:33:40.918Z,23.50
2017-06-24T20:36:14.646Z,23.50
2017-06-24T20:38:42.714Z,23.50
2017-06-24T20:41:14.294Z,23.40
2017-06-24T20:43:42.326Z,23.30
2017-06-24T20:46:13.634Z,23.10
2017-06-24T20:48:47.345Z,22.90
2017-06-24T20:51:19.993Z,22.80
2017-06-24T20:53:48.109Z,22.70
2017-06-24T20:56:16.206Z,22.60
2017-06-24T20:59:04.346Z,22.50
2017-06-24T21:01:32.478Z,22.50
2017-06-24T21:04:12.453Z,22.40
2017-06-24T21:06:41.293Z,22.30
2017-06-24T21:09:12.489Z,22.30
2017-06-24T21:11:46.325Z,22.20
2017-06-24T21:14:14.345Z,22.20
2017-06-24T21:16:42.357Z,22.10
2017-06-24T21:19:13.490Z,22.10
2017-06-24T21:21:43.177Z,22.00
2017-06-24T21:24:12.134Z,22.00
2017-06-24T21:26:47.373Z,22.00
2017-06-24T21:29:15.381Z,21.90
2017-06-24T21:32:01.478Z,21.90
2017-06-24T21:34:31.373Z,21.90
2017-06-24T21:37:01.297Z,21.80
2017-06-24T21:39:30.073Z,21.80
2017-06-24T21:41:58.993Z,21.80
2017-06-24T21:44:39.569Z,21.80
2017-06-24T21:47:12.761Z,21.70
2017-06-24T21:49:40.793Z,21.60
2017-06-24T21:52:13.117Z,21.40
2017-06-24T21:54:41.133Z,21.30
2017-06-24T21:57:09.149Z,21.10
2017-06-24T21:59:47.921Z,21.10
2017-06-24T22:02:23.597Z,20.90
2017-06-24T22:04:52.541Z,20.80
2017-06-24T22:07:21.464Z,20.50
2017-06-24T22:09:49.461Z,20.40
2017-06-24T22:12:17.477Z,20.30
2017-06-24T22:14:51.272Z,20.40
2017-06-24T22:17:20.185Z,20.40
2017-06-24T22:19:49.089Z,20.20
2017-06-24T22:22:17.873Z,19.50
2017-06-24T22:25:06.949Z,19.50
2017-06-24T22:27:41.584Z,19.30
2017-06-24T22:30:11.577Z,19.30
2017-06-24T22:32:42.249Z,19.50
2017-06-24T22:35:10.261Z,19.50
2017-06-24T22:37:44.341Z,19.70
2017-06-24T22:40:12.361Z,19.70
2017-06-24T22:42:50.924Z,19.20
2017-06-24T22:45:18.941Z,19.20
2017-06-24T22:48:00.129Z,18.90
2017-06-24T22:50:35.855Z,19.10
2017-06-24T22:53:12.864Z,19.10
2017-06-24T22:55:42.752Z,19.10
2017-06-24T22:58:12.664Z,19.10
2017-06-24T23:00:44.336Z,19.10
2017-06-24T23:03:16.172Z,18.90
2017-06-24T23:05:48.049Z,19.00
2017-06-24T23:08:22.505Z,19.10
2017-06-24T23:11:07.876Z,19.00
2017-06-24T23:13:43.788Z,18.70
2017-06-24T23:16:12.764Z,18.50
2017-06-24T23:18:40.780Z,18.30
2017-06-24T23:21:08.797Z,18.30
2017-06-24T23:23:54.676Z,18.10
2017-06-24T23:26:22.684Z,18.10
2017-06-24T23:29:01.380Z,18.20
2017-06-24T23:31:30.389Z,18.30
2017-06-24T23:34:02.156Z,18.60
2017-06-24T23:36:33.812Z,18.50
2017-06-24T23:39:01.844Z,18.40
2017-06-24T23:41:29.864Z,18.30
2017-06-24T23:44:08.979Z,18.60
2017-06-24T23:46:36.987Z,18.60
2017-06-24T23:49:05.916Z,18.40
2017-06-24T23:51:34.267Z,18.40
2017-06-24T23:54:03.204Z,18.50
2017-06-24T23:56:45.451Z,18.60
2017-06-24T23:59:14.391Z,18.50
